createdAt,value
2022-10-23T00:00:17.095Z,99916.00
2022-10-23T00:05:40.609Z,99916.05
2022-10-23T00:10:43.488Z,99913.07
2022-10-23T00:15:46.013Z,99910.13
2022-10-23T00:20:48.511Z,99916.08
2022-10-23T00:25:50.942Z,99918.33
2022-10-23T00:30:53.413Z,99918.83
2022-10-23T00:35:55.879Z,99917.48
2022-10-23T00:40:58.367Z,99922.73
2022-10-23T00:46:01.189Z,99920.02
2022-10-23T00:51:03.685Z,99923.92
2022-10-23T00:56:06.285Z,99920.65
2022-10-23T01:01:11.684Z,99927.09
2022-10-23T01:06:14.204Z,99935.94
2022-10-23T01:11:26.446Z,99935.05
2022-10-23T01:16:29.290Z,99940.65
2022-10-23T01:21:42.325Z,99945.09
2022-10-23T01:26:47.740Z,99953.91
2022-10-23T01:31:55.638Z,99960.15
2022-10-23T01:37:02.147Z,99958.98
2022-10-23T01:42:08.527Z,99957.23
2022-10-23T01:47:12.979Z,99957.02
2022-10-23T01:52:16.480Z,99956.45
2022-10-23T01:57:20.539Z,99962.25
2022-10-23T02:02:24.752Z,99964.52
2022-10-23T02:07:27.239Z,99963.89
2022-10-23T02:12:32.664Z,99968.86
2022-10-23T02:17:43.595Z,99969.40
2022-10-23T02:22:49.214Z,99963.83
2022-10-23T02:27:54.429Z,99964.59
2022-10-23T02:32:57.593Z,99975.95
2022-10-23T02:38:01.170Z,99984.45
2022-10-23T02:43:06.614Z,99988.27
2022-10-23T02:48:11.092Z,99990.46
2022-10-23T02:53:25.742Z,99980.98
2022-10-23T02:58:35.517Z,99972.64
2022-10-23T03:03:41.380Z,99978.63
2022-10-23T03:08:44.978Z,99977.81
2022-10-23T03:13:47.762Z,99974.60
2022-10-23T03:18:50.132Z,99966.66
2022-10-23T03:23:52.759Z,99975.84
2022-10-23T03:28:55.227Z,99971.42
2022-10-23T03:33:57.730Z,99965.36
2022-10-23T03:39:00.217Z,99968.36
2022-10-23T03:44:06.211Z,99983.24
2022-10-23T03:49:08.651Z,99994.45
2022-10-23T03:54:11.133Z,99988.52
2022-10-23T03:59:13.765Z,99989.16
2022-10-23T04:04:17.251Z,99987.33
2022-10-23T04:09:19.882Z,99988.25
2022-10-23T04:14:22.578Z,99985.64
2022-10-23T04:19:25.066Z,99991.69
2022-10-23T04:24:27.544Z,100002.01
2022-10-23T04:29:32.330Z,100003.24
2022-10-23T04:34:35.166Z,99991.40
2022-10-23T04:39:37.656Z,99991.05
2022-10-23T04:44:40.110Z,100001.95
2022-10-23T04:49:42.985Z,100016.20
2022-10-23T04:54:47.610Z,100018.84
2022-10-23T04:59:50.029Z,100023.94
2022-10-23T05:04:52.410Z,100025.48
2022-10-23T05:09:54.795Z,100029.04
2022-10-23T05:14:57.293Z,100032.23
2022-10-23T05:20:01.531Z,100037.88
2022-10-23T05:25:04.678Z,100037.93
2022-10-23T05:30:07.331Z,100034.52
2022-10-23T05:35:13.128Z,100038.10
2022-10-23T05:40:15.873Z,100046.20
2022-10-23T05:45:18.536Z,100048.13
2022-10-23T05:50:20.927Z,100045.10
2022-10-23T05:55:23.320Z,100044.60
2022-10-23T06:00:25.709Z,100050.33
2022-10-23T06:05:28.335Z,100042.95
2022-10-23T06:10:31.764Z,100039.38
2022-10-23T06:15:34.305Z,100048.17
2022-10-23T06:20:37.396Z,100055.80
2022-10-23T06:25:40.195Z,100064.15
2022-10-23T06:30:42.574Z,100073.03
2022-10-23T06:35:45.075Z,100078.18
2022-10-23T06:40:52.292Z,100073.91
2022-10-23T06:45:54.664Z,100068.80
2022-10-23T06:50:57.411Z,100072.98
2022-10-23T06:56:00.562Z,100072.28
2022-10-23T07:01:05.292Z,100069.64
2022-10-23T07:06:08.888Z,100072.14
2022-10-23T07:11:11.957Z,100076.11
2022-10-23T07:16:18.234Z,100072.52
2022-10-23T07:21:20.677Z,100071.35
2022-10-23T07:26:23.152Z,100073.39
2022-10-23T07:31:28.160Z,100077.25
2022-10-23T07:36:31.334Z,100072.78
2022-10-23T07:41:33.916Z,100075.08
2022-10-23T07:46:36.382Z,100078.09
2022-10-23T07:51:38.929Z,100080.48
2022-10-23T07:56:41.435Z,100079.18
2022-10-23T08:01:47.083Z,100088.65
2022-10-23T08:06:49.903Z,100093.11
2022-10-23T08:11:52.638Z,100092.14
2022-10-23T08:16:55.331Z,100092.10
2022-10-23T08:21:57.868Z,100087.70
2022-10-23T08:27:00.308Z,100093.33
2022-10-23T08:32:02.865Z,100092.29
2022-10-23T08:37:05.445Z,100103.58
2022-10-23T08:42:17.158Z,100104.71
2022-10-23T08:47:24.978Z,100103.43
2022-10-23T08:52:34.028Z,100097.18
2022-10-23T08:57:43.731Z,100107.00
2022-10-23T09:02:47.823Z,100108.80
2022-10-23T09:07:50.276Z,100104.36
2022-10-23T09:12:52.800Z,100103.39
2022-10-23T09:17:57.621Z,100103.23
2022-10-23T09:23:01.807Z,100118.10
2022-10-23T09:28:05.699Z,100123.77
2022-10-23T09:33:11.501Z,100126.73
2022-10-23T09:38:16.912Z,100121.73
2022-10-23T09:43:21.769Z,100118.04
2022-10-23T09:48:24.319Z,100114.45
2022-10-23T09:53:30.749Z,100111.48
2022-10-23T09:58:35.644Z,100114.41
2022-10-23T10:03:38.301Z,100117.31
2022-10-23T10:08:44.475Z,100115.85
2022-10-23T10:13:49.844Z,100114.81
2022-10-23T10:19:12.548Z,100113.01
2022-10-23T10:24:20.269Z,100109.20
2022-10-23T10:29:31.226Z,100112.27
2022-10-23T10:34:36.761Z,100114.73
2022-10-23T10:39:47.665Z,100119.78
2022-10-23T10:44:53.125Z,100117.88
2022-10-23T10:50:02.644Z,100118.10
2022-10-23T10:55:09.170Z,100118.04
2022-10-23T11:00:12.880Z,100122.61
2022-10-23T11:05:20.003Z,100124.08
2022-10-23T11:10:22.912Z,100121.77
2022-10-23T11:15:28.021Z,100121.35
2022-10-23T11:20:33.525Z,100124.36
2022-10-23T11:25:38.926Z,100125.34
2022-10-23T11:30:43.356Z,100123.11
2022-10-23T11:35:52.376Z,100116.70
2022-10-23T11:40:57.234Z,100113.55
2022-10-23T11:46:03.062Z,100110.08
2022-10-23T11:51:06.849Z,100110.20
2022-10-23T11:56:11.570Z,100108.61
2022-10-23T12:01:18.342Z,100107.75
2022-10-23T12:06:23.023Z,100105.27
2022-10-23T12:11:27.595Z,100103.44
2022-10-23T12:16:33.526Z,100102.35
2022-10-23T12:21:36.585Z,100102.16
2022-10-23T12:26:42.388Z,100107.55
2022-10-23T12:31:48.279Z,100106.13
2022-10-23T12:36:52.101Z,100110.65
2022-10-23T12:41:55.006Z,100101.70
2022-10-23T12:46:58.565Z,100107.45
2022-10-23T12:52:03.673Z,100106.45
2022-10-23T12:57:11.327Z,100100.17
2022-10-23T13:02:23.662Z,100098.55
2022-10-23T13:07:27.965Z,100100.67
2022-10-23T13:12:33.281Z,100101.18
2022-10-23T13:17:38.293Z,100095.64
2022-10-23T13:22:41.699Z,100093.02
2022-10-23T13:27:44.799Z,100099.84
2022-10-23T13:32:47.587Z,100101.72
2022-10-23T13:37:51.114Z,100106.02
2022-10-23T13:42:54.963Z,100106.88
2022-10-23T13:47:57.433Z,100099.71
2022-10-23T13:52:59.899Z,100099.70
2022-10-23T13:58:03.156Z,100100.35
2022-10-23T14:03:06.267Z,100107.10
2022-10-23T14:08:08.757Z,100108.23
2022-10-23T14:13:11.244Z,100105.17
2022-10-23T14:18:13.888Z,100098.61
2022-10-23T14:23:16.381Z,100097.58
2022-10-23T14:28:18.886Z,100092.53
2022-10-23T14:33:21.469Z,100090.57
2022-10-23T14:38:24.347Z,100094.11
2022-10-23T14:43:26.910Z,100092.92
2022-10-23T14:48:29.558Z,100094.04
2022-10-23T14:53:32.231Z,100104.33
2022-10-23T14:58:35.837Z,100098.23
2022-10-23T15:03:38.331Z,100094.80
2022-10-23T15:08:40.858Z,100095.64
2022-10-23T15:13:43.350Z,100096.90
2022-10-23T15:18:45.930Z,100094.94
2022-10-23T15:23:48.955Z,100091.89
2022-10-23T15:28:54.602Z,100080.66
2022-10-23T15:33:58.206Z,100083.67
2022-10-23T15:39:00.934Z,100089.07
2022-10-23T15:44:04.751Z,100096.70
2022-10-23T15:49:08.573Z,100097.23
2022-10-23T15:54:16.473Z,100101.67
2022-10-23T15:59:20.039Z,100105.21
2022-10-23T16:04:22.875Z,100102.98
2022-10-23T16:09:25.393Z,100106.33
2022-10-23T16:14:28.050Z,100108.83
2022-10-23T16:19:30.700Z,100106.38
2022-10-23T16:24:33.687Z,100104.54
2022-10-23T16:29:36.276Z,100110.90
2022-10-23T16:34:38.754Z,100112.13
2022-10-23T16:39:41.326Z,100113.41
2022-10-23T16:44:43.828Z,100116.85
2022-10-23T16:49:46.319Z,100112.96
2022-10-23T16:54:48.783Z,100110.34
2022-10-23T16:59:51.246Z,100115.00
2022-10-23T17:04:53.739Z,100117.15
2022-10-23T17:09:56.304Z,100114.27
2022-10-23T17:14:58.876Z,100117.21
2022-10-23T17:20:03.869Z,100114.95
2022-10-23T17:25:06.861Z,100118.44
2022-10-23T17:30:12.688Z,100118.44
2022-10-23T17:35:15.337Z,100124.05
2022-10-23T17:40:21.478Z,100120.10
2022-10-23T17:45:26.562Z,100117.27
2022-10-23T17:50:29.154Z,100118.38
2022-10-23T17:55:31.679Z,100119.98
2022-10-23T18:00:36.249Z,100115.70
2022-10-23T18:10:41.239Z,100120.13
2022-10-23T18:15:43.707Z,100125.14
2022-10-23T18:20:46.184Z,100123.20
2022-10-23T18:25:48.574Z,100124.98
2022-10-23T18:30:53.427Z,100122.79
2022-10-23T18:35:58.842Z,100122.43
2022-10-23T18:41:01.590Z,100123.84
2022-10-23T18:46:04.248Z,100122.69
2022-10-23T18:51:12.247Z,100116.29
2022-10-23T18:56:22.683Z,100115.48
2022-10-23T19:01:27.225Z,100116.58
2022-10-23T19:06:30.807Z,100120.82
2022-10-23T19:11:33.209Z,100123.54
2022-10-23T19:16:38.823Z,100117.11
2022-10-23T19:21:41.985Z,100128.02
2022-10-23T19:26:44.796Z,100119.37
2022-10-23T19:31:49.297Z,100103.91
2022-10-23T19:36:53.272Z,100099.02
2022-10-23T19:41:55.979Z,100104.02
2022-10-23T19:46:58.696Z,100104.22
2022-10-23T19:52:01.192Z,100101.83
2022-10-23T19:57:03.856Z,100099.48
2022-10-23T20:02:06.734Z,100099.30
2022-10-23T20:07:09.712Z,100090.98
2022-10-23T20:12:12.184Z,100091.69
2022-10-23T20:17:14.652Z,100086.11
2022-10-23T20:22:17.109Z,100083.54
2022-10-23T20:27:19.779Z,100081.52
2022-10-23T20:32:22.235Z,100082.42
2022-10-23T20:37:24.834Z,100079.33
2022-10-23T20:42:27.232Z,100072.99
2022-10-23T20:47:29.714Z,100070.73
2022-10-23T20:57:35.852Z,100067.70
2022-10-23T21:02:38.423Z,100070.43
2022-10-23T21:07:41.148Z,100072.67
2022-10-23T21:12:43.889Z,100074.56
2022-10-23T21:17:49.687Z,100073.03
2022-10-23T21:22:54.148Z,100080.63
2022-10-23T21:27:56.562Z,100088.41
2022-10-23T21:32:58.996Z,100085.42
2022-10-23T21:38:01.403Z,100087.26
2022-10-23T21:43:03.856Z,100082.65
2022-10-23T21:48:06.369Z,100075.62
2022-10-23T21:53:09.363Z,100074.82
2022-10-23T21:58:11.910Z,100075.05
2022-10-23T22:03:14.485Z,100074.34
2022-10-23T22:08:16.873Z,100074.05
2022-10-23T22:13:19.353Z,100071.86
2022-10-23T22:18:21.767Z,100076.06
2022-10-23T22:23:24.215Z,100080.55
2022-10-23T22:28:26.956Z,100076.52
2022-10-23T22:33:30.803Z,100077.74
2022-10-23T22:38:33.338Z,100079.67
2022-10-23T22:43:35.919Z,100074.08
2022-10-23T22:48:38.862Z,100071.73
2022-10-23T22:53:41.881Z,100074.08
2022-10-23T22:58:47.077Z,100089.88
2022-10-23T23:03:50.512Z,100082.99
2022-10-23T23:08:52.984Z,100083.36
2022-10-23T23:13:55.572Z,100084.05
2022-10-23T23:19:01.626Z,100084.10
2022-10-23T23:24:04.299Z,100068.23
2022-10-23T23:29:06.785Z,100068.27
2022-10-23T23:34:09.187Z,100060.80
2022-10-23T23:39:11.667Z,100038.23
2022-10-23T23:44:14.175Z,100035.69
2022-10-23T23:49:16.607Z,100041.81
2022-10-23T23:54:19.128Z,100039.45
2022-10-23T23:59:21.584Z,100035.21
